sensor_id;sensor_type;location;lat;lon;timestamp;P1;durP1;ratioP1;P2;durP2;ratioP2
41532;SDS011;27262;-35.248;149.138;2023-09-07T00:02:25;1.83;;;0.85;;
41532;SDS011;27262;-35.248;149.138;2023-09-07T00:05:05;0.82;;;0.60;;
41532;SDS011;27262;-35.248;149.138;2023-09-07T00:07:37;1.75;;;0.80;;
41532;SDS011;27262;-35.248;149.138;2023-09-07T00:10:07;2.25;;;0.77;;
41532;SDS011;27262;-35.248;149.138;2023-09-07T00:12:38;1.75;;;0.68;;
41532;SDS011;27262;-35.248;149.138;2023-09-07T00:15:09;2.42;;;0.80;;
41532;SDS011;27262;-35.248;149.138;2023-09-07T00:17:39;1.00;;;0.60;;
41532;SDS011;27262;-35.248;149.138;2023-09-07T00:20:10;1.33;;;0.60;;
41532;SDS011;27262;-35.248;149.138;2023-09-07T00:22:43;1.75;;;0.70;;
41532;SDS011;27262;-35.248;149.138;2023-09-07T00:25:14;2.10;;;0.65;;
41532;SDS011;27262;-35.248;149.138;2023-09-07T00:27:44;1.30;;;0.70;;
41532;SDS011;27262;-35.248;149.138;2023-09-07T00:30:14;1.58;;;0.75;;
41532;SDS011;27262;-35.248;149.138;2023-09-07T00:32:45;0.70;;;0.57;;
41532;SDS011;27262;-35.248;149.138;2023-09-07T00:35:16;4.25;;;0.95;;
41532;SDS011;27262;-35.248;149.138;2023-09-07T00:37:46;1.27;;;0.70;;
41532;SDS011;27262;-35.248;149.138;2023-09-07T00:40:17;0.75;;;0.63;;
41532;SDS011;27262;-35.248;149.138;2023-09-07T00:42:48;1.38;;;0.60;;
41532;SDS011;27262;-35.248;149.138;2023-09-07T00:45:18;2.72;;;0.68;;
41532;SDS011;27262;-35.248;149.138;2023-09-07T00:47:49;3.75;;;0.70;;
41532;SDS011;27262;-35.248;149.138;2023-09-07T00:50:19;2.30;;;0.75;;
41532;SDS011;27262;-35.248;149.138;2023-09-07T00:52:50;1.30;;;0.70;;
41532;SDS011;27262;-35.248;149.138;2023-09-07T00:55:21;0.80;;;0.50;;
41532;SDS011;27262;-35.248;149.138;2023-09-07T00:57:51;1.13;;;0.93;;
41532;SDS011;27262;-35.248;149.138;2023-09-07T01:00:22;3.22;;;0.63;;
41532;SDS011;27262;-35.248;149.138;2023-09-07T01:02:52;0.95;;;0.50;;
41532;SDS011;27262;-35.248;149.138;2023-09-07T01:05:32;2.28;;;0.88;;
41532;SDS011;27262;-35.248;149.138;2023-09-07T01:08:13;1.30;;;0.60;;
41532;SDS011;27262;-35.248;149.138;2023-09-07T01:10:51;3.60;;;1.20;;
41532;SDS011;27262;-35.248;149.138;2023-09-07T01:13:22;1.33;;;0.57;;
41532;SDS011;27262;-35.248;149.138;2023-09-07T01:15:52;1.02;;;0.70;;
41532;SDS011;27262;-35.248;149.138;2023-09-07T01:18:23;2.38;;;0.80;;
41532;SDS011;27262;-35.248;149.138;2023-09-07T01:20:54;1.85;;;0.60;;
41532;SDS011;27262;-35.248;149.138;2023-09-07T01:23:27;2.45;;;0.55;;
41532;SDS011;27262;-35.248;149.138;2023-09-07T01:25:57;3.45;;;0.90;;
41532;SDS011;27262;-35.248;149.138;2023-09-07T01:28:28;2.53;;;0.80;;
41532;SDS011;27262;-35.248;149.138;2023-09-07T01:30:59;3.30;;;0.70;;
41532;SDS011;27262;-35.248;149.138;2023-09-07T01:33:30;1.35;;;0.60;;
41532;SDS011;27262;-35.248;149.138;2023-09-07T01:36:01;3.92;;;1.00;;
41532;SDS011;27262;-35.248;149.138;2023-09-07T01:38:32;2.35;;;0.60;;
41532;SDS011;27262;-35.248;149.138;2023-09-07T01:41:02;2.50;;;0.75;;
41532;SDS011;27262;-35.248;149.138;2023-09-07T01:43:33;2.50;;;0.60;;
41532;SDS011;27262;-35.248;149.138;2023-09-07T01:46:04;2.00;;;0.70;;
41532;SDS011;27262;-35.248;149.138;2023-09-07T01:48:34;1.00;;;0.60;;
41532;SDS011;27262;-35.248;149.138;2023-09-07T01:51:05;1.08;;;0.60;;
41532;SDS011;27262;-35.248;149.138;2023-09-07T01:53:35;2.53;;;0.88;;
41532;SDS011;27262;-35.248;149.138;2023-09-07T01:56:06;1.35;;;0.60;;
41532;SDS011;27262;-35.248;149.138;2023-09-07T01:58:37;3.33;;;0.88;;
41532;SDS011;27262;-35.248;149.138;2023-09-07T02:01:23;3.47;;;0.90;;
41532;SDS011;27262;-35.248;149.138;2023-09-07T02:03:58;1.70;;;0.98;;
41532;SDS011;27262;-35.248;149.138;2023-09-07T02:06:28;2.83;;;0.95;;
41532;SDS011;27262;-35.248;149.138;2023-09-07T02:08:59;1.10;;;0.55;;
41532;SDS011;27262;-35.248;149.138;2023-09-07T02:11:30;2.20;;;0.70;;
41532;SDS011;27262;-35.248;149.138;2023-09-07T02:14:01;4.38;;;0.88;;
41532;SDS011;27262;-35.248;149.138;2023-09-07T02:16:33;2.10;;;0.73;;
41532;SDS011;27262;-35.248;149.138;2023-09-07T02:19:04;2.50;;;1.13;;
41532;SDS011;27262;-35.248;149.138;2023-09-07T02:21:37;2.30;;;1.45;;
41532;SDS011;27262;-35.248;149.138;2023-09-07T02:24:08;4.30;;;1.20;;
41532;SDS011;27262;-35.248;149.138;2023-09-07T02:26:39;6.15;;;1.65;;
41532;SDS011;27262;-35.248;149.138;2023-09-07T02:29:14;3.38;;;1.85;;
41532;SDS011;27262;-35.248;149.138;2023-09-07T02:31:44;6.15;;;2.50;;
41532;SDS011;27262;-35.248;149.138;2023-09-07T02:34:15;3.88;;;1.75;;
41532;SDS011;27262;-35.248;149.138;2023-09-07T02:36:45;5.38;;;2.30;;
41532;SDS011;27262;-35.248;149.138;2023-09-07T02:39:16;5.47;;;2.45;;
41532;SDS011;27262;-35.248;149.138;2023-09-07T02:41:47;6.50;;;2.80;;
41532;SDS011;27262;-35.248;149.138;2023-09-07T02:44:17;4.18;;;2.30;;
41532;SDS011;27262;-35.248;149.138;2023-09-07T02:46:48;8.38;;;3.30;;
41532;SDS011;27262;-35.248;149.138;2023-09-07T02:49:18;4.38;;;2.45;;
41532;SDS011;27262;-35.248;149.138;2023-09-07T02:51:48;3.53;;;2.42;;
41532;SDS011;27262;-35.248;149.138;2023-09-07T02:54:19;3.63;;;2.70;;
41532;SDS011;27262;-35.248;149.138;2023-09-07T02:56:49;5.40;;;2.78;;
41532;SDS011;27262;-35.248;149.138;2023-09-07T02:59:20;4.05;;;2.47;;
41532;SDS011;27262;-35.248;149.138;2023-09-07T03:01:50;3.95;;;2.50;;
41532;SDS011;27262;-35.248;149.138;2023-09-07T03:04:20;7.57;;;2.70;;
41532;SDS011;27262;-35.248;149.138;2023-09-07T03:06:52;6.00;;;2.28;;
41532;SDS011;27262;-35.248;149.138;2023-09-07T03:09:22;4.32;;;2.17;;
41532;SDS011;27262;-35.248;149.138;2023-09-07T03:11:52;2.25;;;1.85;;
41532;SDS011;27262;-35.248;149.138;2023-09-07T03:14:23;3.25;;;2.20;;
41532;SDS011;27262;-35.248;149.138;2023-09-07T03:16:53;2.50;;;1.88;;
41532;SDS011;27262;-35.248;149.138;2023-09-07T03:19:24;4.93;;;1.83;;
41532;SDS011;27262;-35.248;149.138;2023-09-07T03:21:54;2.33;;;1.75;;
41532;SDS011;27262;-35.248;149.138;2023-09-07T03:24:25;7.20;;;1.75;;
41532;SDS011;27262;-35.248;149.138;2023-09-07T03:26:56;3.97;;;1.90;;
41532;SDS011;27262;-35.248;149.138;2023-09-07T03:29:29;3.83;;;1.75;;
41532;SDS011;27262;-35.248;149.138;2023-09-07T03:31:59;3.42;;;1.60;;
41532;SDS011;27262;-35.248;149.138;2023-09-07T03:34:30;4.80;;;1.65;;
41532;SDS011;27262;-35.248;149.138;2023-09-07T03:37:01;2.45;;;1.30;;
41532;SDS011;27262;-35.248;149.138;2023-09-07T03:39:34;3.47;;;1.60;;
41532;SDS011;27262;-35.248;149.138;2023-09-07T03:42:04;5.22;;;1.52;;
41532;SDS011;27262;-35.248;149.138;2023-09-07T03:44:35;3.28;;;1.70;;
41532;SDS011;27262;-35.248;149.138;2023-09-07T03:47:05;3.13;;;1.20;;
41532;SDS011;27262;-35.248;149.138;2023-09-07T03:49:36;6.38;;;1.50;;
41532;SDS011;27262;-35.248;149.138;2023-09-07T03:52:07;3.80;;;1.50;;
41532;SDS011;27262;-35.248;149.138;2023-09-07T03:54:38;5.00;;;1.60;;
41532;SDS011;27262;-35.248;149.138;2023-09-07T03:57:08;1.65;;;1.05;;
41532;SDS011;27262;-35.248;149.138;2023-09-07T03:59:38;2.88;;;1.33;;
41532;SDS011;27262;-35.248;149.138;2023-09-07T04:02:09;4.72;;;1.65;;
41532;SDS011;27262;-35.248;149.138;2023-09-07T04:04:40;2.88;;;1.58;;
41532;SDS011;27262;-35.248;149.138;2023-09-07T04:07:11;6.75;;;1.60;;
41532;SDS011;27262;-35.248;149.138;2023-09-07T04:09:41;3.95;;;1.38;;
41532;SDS011;27262;-35.248;149.138;2023-09-07T04:12:13;4.00;;;1.92;;
41532;SDS011;27262;-35.248;149.138;2023-09-07T04:14:43;3.70;;;1.67;;
41532;SDS011;27262;-35.248;149.138;2023-09-07T04:17:14;2.53;;;1.50;;
41532;SDS011;27262;-35.248;149.138;2023-09-07T04:19:44;3.47;;;1.67;;
41532;SDS011;27262;-35.248;149.138;2023-09-07T04:22:15;3.95;;;1.70;;
41532;SDS011;27262;-35.248;149.138;2023-09-07T04:24:47;4.28;;;1.55;;
41532;SDS011;27262;-35.248;149.138;2023-09-07T04:27:18;3.75;;;1.60;;
41532;SDS011;27262;-35.248;149.138;2023-09-07T04:29:49;5.80;;;2.17;;
41532;SDS011;27262;-35.248;149.138;2023-09-07T04:32:19;2.55;;;1.50;;
41532;SDS011;27262;-35.248;149.138;2023-09-07T04:34:54;2.83;;;1.17;;
41532;SDS011;27262;-35.248;149.138;2023-09-07T04:37:25;2.67;;;1.35;;
41532;SDS011;27262;-35.248;149.138;2023-09-07T04:39:55;4.05;;;1.42;;
41532;SDS011;27262;-35.248;149.138;2023-09-07T04:42:25;3.22;;;1.38;;
41532;SDS011;27262;-35.248;149.138;2023-09-07T04:44:56;5.35;;;1.50;;
41532;SDS011;27262;-35.248;149.138;2023-09-07T04:47:26;3.50;;;1.40;;
41532;SDS011;27262;-35.248;149.138;2023-09-07T04:49:56;4.00;;;1.33;;
41532;SDS011;27262;-35.248;149.138;2023-09-07T04:52:27;3.88;;;1.42;;
41532;SDS011;27262;-35.248;149.138;2023-09-07T04:54:57;4.18;;;1.40;;
41532;SDS011;27262;-35.248;149.138;2023-09-07T04:57:29;2.40;;;1.40;;
41532;SDS011;27262;-35.248;149.138;2023-09-07T05:00:00;3.65;;;1.38;;
41532;SDS011;27262;-35.248;149.138;2023-09-07T05:02:32;2.10;;;1.08;;
41532;SDS011;27262;-35.248;149.138;2023-09-07T05:05:07;7.47;;;1.60;;
41532;SDS011;27262;-35.248;149.138;2023-09-07T05:07:37;3.72;;;1.60;;
41532;SDS011;27262;-35.248;149.138;2023-09-07T05:10:08;1.50;;;1.10;;
41532;SDS011;27262;-35.248;149.138;2023-09-07T05:12:40;4.38;;;1.55;;
41532;SDS011;27262;-35.248;149.138;2023-09-07T05:15:11;4.63;;;1.42;;
41532;SDS011;27262;-35.248;149.138;2023-09-07T05:17:41;3.53;;;1.40;;
41532;SDS011;27262;-35.248;149.138;2023-09-07T05:20:12;2.67;;;1.27;;
41532;SDS011;27262;-35.248;149.138;2023-09-07T05:22:42;3.58;;;1.45;;
41532;SDS011;27262;-35.248;149.138;2023-09-07T05:25:12;2.70;;;1.40;;
41532;SDS011;27262;-35.248;149.138;2023-09-07T05:27:43;6.05;;;1.38;;
41532;SDS011;27262;-35.248;149.138;2023-09-07T05:30:13;4.88;;;1.60;;
41532;SDS011;27262;-35.248;149.138;2023-09-07T05:32:44;3.58;;;1.48;;
41532;SDS011;27262;-35.248;149.138;2023-09-07T05:35:15;3.72;;;1.30;;
41532;SDS011;27262;-35.248;149.138;2023-09-07T05:37:46;3.10;;;1.77;;
41532;SDS011;27262;-35.248;149.138;2023-09-07T05:40:18;3.33;;;1.58;;
41532;SDS011;27262;-35.248;149.138;2023-09-07T05:42:48;7.03;;;1.60;;
41532;SDS011;27262;-35.248;149.138;2023-09-07T05:45:19;3.83;;;1.17;;
41532;SDS011;27262;-35.248;149.138;2023-09-07T05:47:49;5.50;;;1.52;;
41532;SDS011;27262;-35.248;149.138;2023-09-07T05:50:20;2.67;;;1.17;;
41532;SDS011;27262;-35.248;149.138;2023-09-07T05:52:50;4.35;;;1.50;;
41532;SDS011;27262;-35.248;149.138;2023-09-07T05:55:21;1.55;;;1.05;;
41532;SDS011;27262;-35.248;149.138;2023-09-07T05:57:53;1.35;;;1.25;;
41532;SDS011;27262;-35.248;149.138;2023-09-07T06:00:24;4.47;;;1.25;;
41532;SDS011;27262;-35.248;149.138;2023-09-07T06:02:54;4.68;;;1.48;;
41532;SDS011;27262;-35.248;149.138;2023-09-07T06:05:25;3.40;;;1.40;;
41532;SDS011;27262;-35.248;149.138;2023-09-07T06:07:56;2.72;;;1.38;;
41532;SDS011;27262;-35.248;149.138;2023-09-07T06:10:27;1.50;;;1.30;;
41532;SDS011;27262;-35.248;149.138;2023-09-07T06:12:58;2.17;;;1.42;;
41532;SDS011;27262;-35.248;149.138;2023-09-07T06:15:30;4.10;;;1.30;;
41532;SDS011;27262;-35.248;149.138;2023-09-07T06:18:01;1.80;;;1.40;;
41532;SDS011;27262;-35.248;149.138;2023-09-07T06:20:31;1.55;;;1.40;;
41532;SDS011;27262;-35.248;149.138;2023-09-07T06:23:04;2.33;;;1.45;;
41532;SDS011;27262;-35.248;149.138;2023-09-07T06:25:34;4.35;;;1.65;;
41532;SDS011;27262;-35.248;149.138;2023-09-07T06:28:04;1.42;;;1.30;;
41532;SDS011;27262;-35.248;149.138;2023-09-07T06:30:35;2.20;;;1.63;;
41532;SDS011;27262;-35.248;149.138;2023-09-07T06:33:05;4.20;;;1.58;;
41532;SDS011;27262;-35.248;149.138;2023-09-07T06:35:36;2.25;;;1.17;;
41532;SDS011;27262;-35.248;149.138;2023-09-07T06:38:07;5.75;;;1.48;;
41532;SDS011;27262;-35.248;149.138;2023-09-07T06:40:41;9.50;;;1.70;;
41532;SDS011;27262;-35.248;149.138;2023-09-07T06:43:16;8.15;;;2.15;;
41532;SDS011;27262;-35.248;149.138;2023-09-07T06:45:46;2.75;;;1.63;;
41532;SDS011;27262;-35.248;149.138;2023-09-07T06:48:17;4.13;;;1.67;;
41532;SDS011;27262;-35.248;149.138;2023-09-07T06:50:47;6.70;;;1.40;;
41532;SDS011;27262;-35.248;149.138;2023-09-07T06:53:18;10.32;;;1.95;;
41532;SDS011;27262;-35.248;149.138;2023-09-07T06:55:56;2.58;;;1.60;;
41532;SDS011;27262;-35.248;149.138;2023-09-07T06:58:27;5.75;;;1.75;;
41532;SDS011;27262;-35.248;149.138;2023-09-07T07:00:58;4.43;;;1.70;;
41532;SDS011;27262;-35.248;149.138;2023-09-07T07:03:30;3.85;;;1.83;;
41532;SDS011;27262;-35.248;149.138;2023-09-07T07:06:00;4.40;;;1.60;;
41532;SDS011;27262;-35.248;149.138;2023-09-07T07:08:31;2.30;;;1.60;;
41532;SDS011;27262;-35.248;149.138;2023-09-07T07:11:01;6.35;;;1.92;;
41532;SDS011;27262;-35.248;149.138;2023-09-07T07:13:32;8.63;;;1.77;;
41532;SDS011;27262;-35.248;149.138;2023-09-07T07:16:02;4.22;;;1.85;;
41532;SDS011;27262;-35.248;149.138;2023-09-07T07:18:34;1.95;;;1.52;;
41532;SDS011;27262;-35.248;149.138;2023-09-07T07:21:05;2.65;;;1.45;;
41532;SDS011;27262;-35.248;149.138;2023-09-07T07:23:38;3.60;;;1.50;;
41532;SDS011;27262;-35.248;149.138;2023-09-07T07:26:08;3.45;;;1.50;;
41532;SDS011;27262;-35.248;149.138;2023-09-07T07:28:39;4.13;;;1.50;;
41532;SDS011;27262;-35.248;149.138;2023-09-07T07:31:25;6.30;;;1.65;;
41532;SDS011;27262;-35.248;149.138;2023-09-07T07:33:57;2.22;;;1.60;;
41532;SDS011;27262;-35.248;149.138;2023-09-07T07:36:28;4.03;;;1.40;;
41532;SDS011;27262;-35.248;149.138;2023-09-07T07:38:59;2.92;;;1.65;;
41532;SDS011;27262;-35.248;149.138;2023-09-07T07:41:30;2.05;;;1.63;;
41532;SDS011;27262;-35.248;149.138;2023-09-07T07:44:00;5.25;;;1.63;;
41532;SDS011;27262;-35.248;149.138;2023-09-07T07:46:31;3.63;;;1.55;;
41532;SDS011;27262;-35.248;149.138;2023-09-07T07:49:02;3.00;;;1.45;;
41532;SDS011;27262;-35.248;149.138;2023-09-07T07:51:32;8.27;;;1.60;;
41532;SDS011;27262;-35.248;149.138;2023-09-07T07:54:02;4.57;;;1.60;;
41532;SDS011;27262;-35.248;149.138;2023-09-07T07:56:33;2.47;;;1.40;;
41532;SDS011;27262;-35.248;149.138;2023-09-07T07:59:03;3.25;;;1.60;;
41532;SDS011;27262;-35.248;149.138;2023-09-07T08:01:34;3.80;;;1.92;;
41532;SDS011;27262;-35.248;149.138;2023-09-07T08:04:05;2.90;;;1.55;;
41532;SDS011;27262;-35.248;149.138;2023-09-07T08:06:35;3.80;;;1.50;;
41532;SDS011;27262;-35.248;149.138;2023-09-07T08:09:06;4.28;;;1.65;;
41532;SDS011;27262;-35.248;149.138;2023-09-07T08:11:37;2.25;;;1.42;;
41532;SDS011;27262;-35.248;149.138;2023-09-07T08:14:08;3.03;;;1.50;;
41532;SDS011;27262;-35.248;149.138;2023-09-07T08:16:39;2.47;;;1.20;;
41532;SDS011;27262;-35.248;149.138;2023-09-07T08:19:09;1.67;;;1.42;;
41532;SDS011;27262;-35.248;149.138;2023-09-07T08:21:40;1.80;;;1.20;;
41532;SDS011;27262;-35.248;149.138;2023-09-07T08:24:14;2.35;;;1.58;;
41532;SDS011;27262;-35.248;149.138;2023-09-07T08:26:45;3.33;;;1.48;;
41532;SDS011;27262;-35.248;149.138;2023-09-07T08:29:19;1.90;;;1.58;;
41532;SDS011;27262;-35.248;149.138;2023-09-07T08:31:53;3.88;;;1.67;;
41532;SDS011;27262;-35.248;149.138;2023-09-07T08:34:25;2.03;;;1.80;;
41532;SDS011;27262;-35.248;149.138;2023-09-07T08:36:56;2.15;;;1.45;;
41532;SDS011;27262;-35.248;149.138;2023-09-07T08:39:28;4.32;;;1.60;;
41532;SDS011;27262;-35.248;149.138;2023-09-07T08:41:59;2.42;;;1.55;;
41532;SDS011;27262;-35.248;149.138;2023-09-07T08:44:30;4.78;;;1.90;;
41532;SDS011;27262;-35.248;149.138;2023-09-07T08:47:06;3.28;;;1.27;;
41532;SDS011;27262;-35.248;149.138;2023-09-07T08:49:36;2.67;;;1.67;;
41532;SDS011;27262;-35.248;149.138;2023-09-07T08:52:07;1.90;;;1.65;;
41532;SDS011;27262;-35.248;149.138;2023-09-07T08:54:39;1.98;;;1.75;;
41532;SDS011;27262;-35.248;149.138;2023-09-07T08:57:12;3.33;;;1.27;;
41532;SDS011;27262;-35.248;149.138;2023-09-07T08:59:43;3.65;;;1.83;;
41532;SDS011;27262;-35.248;149.138;2023-09-07T09:02:14;2.00;;;1.42;;
41532;SDS011;27262;-35.248;149.138;2023-09-07T09:04:45;1.70;;;1.45;;
41532;SDS011;27262;-35.248;149.138;2023-09-07T09:07:15;2.35;;;1.30;;
41532;SDS011;27262;-35.248;149.138;2023-09-07T09:09:46;2.05;;;1.58;;
41532;SDS011;27262;-35.248;149.138;2023-09-07T09:12:20;2.45;;;1.75;;
41532;SDS011;27262;-35.248;149.138;2023-09-07T09:14:51;1.80;;;1.23;;
41532;SDS011;27262;-35.248;149.138;2023-09-07T09:17:24;2.28;;;1.67;;
41532;SDS011;27262;-35.248;149.138;2023-09-07T09:19:54;2.35;;;1.55;;
41532;SDS011;27262;-35.248;149.138;2023-09-07T09:22:25;2.53;;;1.67;;
41532;SDS011;27262;-35.248;149.138;2023-09-07T09:24:55;2.67;;;2.00;;
41532;SDS011;27262;-35.248;149.138;2023-09-07T09:27:25;1.50;;;1.40;;
41532;SDS011;27262;-35.248;149.138;2023-09-07T09:29:56;1.67;;;1.50;;
41532;SDS011;27262;-35.248;149.138;2023-09-07T09:32:27;4.05;;;1.75;;
41532;SDS011;27262;-35.248;149.138;2023-09-07T09:34:58;3.13;;;1.85;;
41532;SDS011;27262;-35.248;149.138;2023-09-07T09:37:29;3.53;;;1.52;;
41532;SDS011;27262;-35.248;149.138;2023-09-07T09:40:00;1.50;;;1.40;;
41532;SDS011;27262;-35.248;149.138;2023-09-07T09:42:31;1.70;;;1.60;;
41532;SDS011;27262;-35.248;149.138;2023-09-07T09:45:02;1.55;;;1.38;;
41532;SDS011;27262;-35.248;149.138;2023-09-07T09:47:35;2.78;;;1.60;;
41532;SDS011;27262;-35.248;149.138;2023-09-07T09:50:10;2.67;;;1.60;;
41532;SDS011;27262;-35.248;149.138;2023-09-07T09:52:40;1.83;;;1.30;;
41532;SDS011;27262;-35.248;149.138;2023-09-07T09:55:11;3.83;;;1.73;;
41532;SDS011;27262;-35.248;149.138;2023-09-07T09:57:42;3.25;;;1.52;;
41532;SDS011;27262;-35.248;149.138;2023-09-07T10:00:13;3.05;;;1.63;;
41532;SDS011;27262;-35.248;149.138;2023-09-07T10:02:59;5.43;;;1.75;;
41532;SDS011;27262;-35.248;149.138;2023-09-07T10:05:35;2.90;;;1.70;;
41532;SDS011;27262;-35.248;149.138;2023-09-07T10:08:09;3.38;;;1.45;;
41532;SDS011;27262;-35.248;149.138;2023-09-07T10:10:48;2.70;;;1.85;;
41532;SDS011;27262;-35.248;149.138;2023-09-07T10:13:29;3.00;;;1.75;;
41532;SDS011;27262;-35.248;149.138;2023-09-07T10:16:02;1.70;;;1.60;;
41532;SDS011;27262;-35.248;149.138;2023-09-07T10:18:38;3.30;;;1.58;;
41532;SDS011;27262;-35.248;149.138;2023-09-07T10:21:10;1.88;;;1.42;;
41532;SDS011;27262;-35.248;149.138;2023-09-07T10:23:44;1.60;;;1.40;;
41532;SDS011;27262;-35.248;149.138;2023-09-07T10:26:15;3.00;;;1.63;;
41532;SDS011;27262;-35.248;149.138;2023-09-07T10:28:58;3.05;;;1.60;;
41532;SDS011;27262;-35.248;149.138;2023-09-07T10:31:31;2.88;;;1.23;;
41532;SDS011;27262;-35.248;149.138;2023-09-07T10:34:18;3.85;;;1.80;;
41532;SDS011;27262;-35.248;149.138;2023-09-07T10:36:55;2.20;;;1.50;;
41532;SDS011;27262;-35.248;149.138;2023-09-07T10:39:28;2.35;;;1.27;;
41532;SDS011;27262;-35.248;149.138;2023-09-07T10:42:01;1.67;;;1.58;;
41532;SDS011;27262;-35.248;149.138;2023-09-07T10:44:32;3.47;;;1.52;;
41532;SDS011;27262;-35.248;149.138;2023-09-07T10:47:03;5.15;;;1.70;;
41532;SDS011;27262;-35.248;149.138;2023-09-07T10:49:35;2.28;;;1.58;;
41532;SDS011;27262;-35.248;149.138;2023-09-07T10:52:05;5.35;;;1.80;;
41532;SDS011;27262;-35.248;149.138;2023-09-07T10:54:37;4.05;;;1.52;;
41532;SDS011;27262;-35.248;149.138;2023-09-07T10:57:07;3.92;;;1.75;;
41532;SDS011;27262;-35.248;149.138;2023-09-07T10:59:44;1.83;;;1.45;;
41532;SDS011;27262;-35.248;149.138;2023-09-07T11:02:15;2.63;;;1.60;;
41532;SDS011;27262;-35.248;149.138;2023-09-07T11:04:45;4.05;;;1.58;;
41532;SDS011;27262;-35.248;149.138;2023-09-07T11:07:16;1.65;;;1.55;;
41532;SDS011;27262;-35.248;149.138;2023-09-07T11:09:46;2.63;;;1.38;;
41532;SDS011;27262;-35.248;149.138;2023-09-07T11:12:22;2.15;;;1.52;;
41532;SDS011;27262;-35.248;149.138;2023-09-07T11:14:53;2.13;;;1.52;;
41532;SDS011;27262;-35.248;149.138;2023-09-07T11:17:27;1.67;;;1.40;;
41532;SDS011;27262;-35.248;149.138;2023-09-07T11:19:57;1.55;;;1.35;;
41532;SDS011;27262;-35.248;149.138;2023-09-07T11:22:34;2.17;;;1.30;;
41532;SDS011;27262;-35.248;149.138;2023-09-07T11:25:27;2.03;;;1.60;;
41532;SDS011;27262;-35.248;149.138;2023-09-07T11:28:08;2.03;;;1.67;;
41532;SDS011;27262;-35.248;149.138;2023-09-07T11:30:51;2.22;;;1.33;;
41532;SDS011;27262;-35.248;149.138;2023-09-07T11:33:25;4.18;;;1.73;;
41532;SDS011;27262;-35.248;149.138;2023-09-07T11:35:56;2.45;;;1.70;;
41532;SDS011;27262;-35.248;149.138;2023-09-07T11:38:34;3.50;;;1.60;;
41532;SDS011;27262;-35.248;149.138;2023-09-07T11:41:08;3.60;;;1.60;;
41532;SDS011;27262;-35.248;149.138;2023-09-07T11:43:39;2.25;;;1.63;;
41532;SDS011;27262;-35.248;149.138;2023-09-07T11:46:10;2.08;;;1.73;;
41532;SDS011;27262;-35.248;149.138;2023-09-07T11:48:40;2.95;;;1.55;;
41532;SDS011;27262;-35.248;149.138;2023-09-07T11:51:11;1.52;;;1.30;;
41532;SDS011;27262;-35.248;149.138;2023-09-07T11:53:41;3.13;;;1.35;;
41532;SDS011;27262;-35.248;149.138;2023-09-07T11:56:11;1.83;;;1.25;;
41532;SDS011;27262;-35.248;149.138;2023-09-07T11:58:45;5.78;;;1.73;;
41532;SDS011;27262;-35.248;149.138;2023-09-07T12:01:16;1.95;;;1.50;;
41532;SDS011;27262;-35.248;149.138;2023-09-07T12:03:47;3.63;;;1.65;;
41532;SDS011;27262;-35.248;149.138;2023-09-07T12:06:20;1.42;;;1.17;;
41532;SDS011;27262;-35.248;149.138;2023-09-07T12:08:58;4.50;;;1.58;;
41532;SDS011;27262;-35.248;149.138;2023-09-07T12:11:29;2.28;;;1.52;;
41532;SDS011;27262;-35.248;149.138;2023-09-07T12:14:00;2.05;;;1.10;;
41532;SDS011;27262;-35.248;149.138;2023-09-07T12:16:31;3.75;;;1.92;;
41532;SDS011;27262;-35.248;149.138;2023-09-07T12:19:01;1.98;;;1.15;;
41532;SDS011;27262;-35.248;149.138;2023-09-07T12:21:31;2.22;;;1.30;;
41532;SDS011;27262;-35.248;149.138;2023-09-07T12:24:02;1.83;;;1.50;;
41532;SDS011;27262;-35.248;149.138;2023-09-07T12:26:33;1.45;;;1.27;;
41532;SDS011;27262;-35.248;149.138;2023-09-07T12:29:04;1.63;;;1.10;;
41532;SDS011;27262;-35.248;149.138;2023-09-07T12:31:36;1.45;;;1.15;;
41532;SDS011;27262;-35.248;149.138;2023-09-07T12:34:07;1.30;;;1.10;;
41532;SDS011;27262;-35.248;149.138;2023-09-07T12:36:37;3.60;;;1.20;;
41532;SDS011;27262;-35.248;149.138;2023-09-07T12:39:07;1.35;;;1.02;;
41532;SDS011;27262;-35.248;149.138;2023-09-07T12:41:41;1.73;;;0.90;;
41532;SDS011;27262;-35.248;149.138;2023-09-07T12:44:11;1.42;;;1.10;;
41532;SDS011;27262;-35.248;149.138;2023-09-07T12:46:42;1.58;;;1.25;;
41532;SDS011;27262;-35.248;149.138;2023-09-07T12:49:12;1.73;;;0.80;;
41532;SDS011;27262;-35.248;149.138;2023-09-07T12:51:46;1.35;;;1.10;;
41532;SDS011;27262;-35.248;149.138;2023-09-07T12:54:16;1.55;;;1.05;;
41532;SDS011;27262;-35.248;149.138;2023-09-07T12:56:47;1.50;;;0.80;;
41532;SDS011;27262;-35.248;149.138;2023-09-07T12:59:18;2.65;;;0.82;;
41532;SDS011;27262;-35.248;149.138;2023-09-07T13:01:48;0.75;;;0.75;;
41532;SDS011;27262;-35.248;149.138;2023-09-07T13:04:22;1.00;;;0.80;;
41532;SDS011;27262;-35.248;149.138;2023-09-07T13:06:52;2.78;;;1.30;;
41532;SDS011;27262;-35.248;149.138;2023-09-07T13:09:23;1.15;;;0.90;;
41532;SDS011;27262;-35.248;149.138;2023-09-07T13:11:53;2.03;;;1.05;;
41532;SDS011;27262;-35.248;149.138;2023-09-07T13:14:24;1.75;;;0.85;;
41532;SDS011;27262;-35.248;149.138;2023-09-07T13:16:57;1.75;;;1.00;;
41532;SDS011;27262;-35.248;149.138;2023-09-07T13:19:27;0.82;;;0.77;;
41532;SDS011;27262;-35.248;149.138;2023-09-07T13:21:58;0.95;;;0.82;;
41532;SDS011;27262;-35.248;149.138;2023-09-07T13:24:29;1.58;;;0.85;;
41532;SDS011;27262;-35.248;149.138;2023-09-07T13:27:00;1.52;;;1.00;;
41532;SDS011;27262;-35.248;149.138;2023-09-07T13:29:34;1.85;;;0.90;;
41532;SDS011;27262;-35.248;149.138;2023-09-07T13:32:05;1.65;;;0.90;;
41532;SDS011;27262;-35.248;149.138;2023-09-07T13:34:36;0.95;;;0.80;;
41532;SDS011;27262;-35.248;149.138;2023-09-07T13:37:06;1.63;;;1.00;;
41532;SDS011;27262;-35.248;149.138;2023-09-07T13:39:36;1.10;;;1.00;;
41532;SDS011;27262;-35.248;149.138;2023-09-07T13:42:09;2.30;;;0.90;;
41532;SDS011;27262;-35.248;149.138;2023-09-07T13:44:39;1.00;;;0.90;;
41532;SDS011;27262;-35.248;149.138;2023-09-07T13:47:10;1.52;;;1.00;;
41532;SDS011;27262;-35.248;149.138;2023-09-07T13:49:40;1.20;;;0.93;;
41532;SDS011;27262;-35.248;149.138;2023-09-07T13:52:10;1.05;;;0.95;;
41532;SDS011;27262;-35.248;149.138;2023-09-07T13:54:42;1.20;;;1.00;;
41532;SDS011;27262;-35.248;149.138;2023-09-07T13:57:12;1.33;;;0.90;;
41532;SDS011;27262;-35.248;149.138;2023-09-07T13:59:43;1.20;;;0.80;;
41532;SDS011;27262;-35.248;149.138;2023-09-07T14:02:13;2.00;;;0.93;;
41532;SDS011;27262;-35.248;149.138;2023-09-07T14:04:44;0.88;;;0.88;;
41532;SDS011;27262;-35.248;149.138;2023-09-07T14:07:14;1.10;;;1.00;;
41532;SDS011;27262;-35.248;149.138;2023-09-07T14:09:45;1.30;;;0.85;;
41532;SDS011;27262;-35.248;149.138;2023-09-07T14:12:15;1.30;;;0.90;;
41532;SDS011;27262;-35.248;149.138;2023-09-07T14:14:46;1.10;;;1.00;;
41532;SDS011;27262;-35.248;149.138;2023-09-07T14:17:16;0.68;;;0.68;;
41532;SDS011;27262;-35.248;149.138;2023-09-07T14:19:47;0.82;;;0.82;;
41532;SDS011;27262;-35.248;149.138;2023-09-07T14:22:17;0.70;;;0.70;;
41532;SDS011;27262;-35.248;149.138;2023-09-07T14:24:48;0.88;;;0.85;;
41532;SDS011;27262;-35.248;149.138;2023-09-07T14:27:18;1.05;;;0.85;;
41532;SDS011;27262;-35.248;149.138;2023-09-07T14:29:48;1.23;;;0.80;;
41532;SDS011;27262;-35.248;149.138;2023-09-07T14:32:19;1.35;;;0.70;;
41532;SDS011;27262;-35.248;149.138;2023-09-07T14:34:49;2.03;;;1.00;;